createdAt,value
2023-04-09T00:00:33.448Z,12.40
2023-04-09T00:01:33.472Z,12.50
2023-04-09T00:02:33.467Z,11.90
2023-04-09T00:03:33.533Z,12.90
2023-04-09T00:04:33.435Z,12.30
2023-04-09T00:05:33.404Z,12.20
2023-04-09T00:06:33.371Z,12.10
2023-04-09T00:07:33.352Z,11.70
2023-04-09T00:08:33.332Z,11.40
2023-04-09T00:09:33.332Z,12.20
2023-04-09T00:10:33.313Z,12.80
2023-04-09T00:11:33.287Z,11.00
2023-04-09T00:12:33.335Z,11.90
2023-04-09T00:13:39.131Z,12.90
2023-04-09T00:14:33.271Z,12.30
2023-04-09T00:15:33.241Z,12.20
2023-04-09T00:16:33.341Z,11.30
2023-04-09T00:17:33.429Z,11.90
2023-04-09T00:18:33.231Z,11.90
2023-04-09T00:19:33.276Z,12.60
2023-04-09T00:20:33.200Z,11.80
2023-04-09T00:21:33.526Z,12.20
2023-04-09T00:22:33.192Z,12.20
2023-04-09T00:23:33.150Z,12.10
2023-04-09T00:24:33.157Z,11.70
2023-04-09T00:25:33.246Z,12.10
2023-04-09T00:26:33.577Z,11.60
2023-04-09T00:27:33.093Z,12.50
2023-04-09T00:28:33.098Z,11.70
2023-04-09T00:29:33.098Z,11.10
2023-04-09T00:30:33.044Z,12.10
2023-04-09T00:31:33.094Z,12.10
2023-04-09T00:32:33.117Z,11.90
2023-04-09T00:33:33.030Z,13.00
2023-04-09T00:34:33.029Z,12.00
2023-04-09T00:35:33.014Z,11.80
2023-04-09T00:36:33.077Z,11.80
2023-04-09T00:37:33.019Z,12.70
2023-04-09T00:38:32.945Z,11.90
2023-04-09T00:39:32.962Z,12.80
2023-04-09T00:40:33.015Z,12.30
2023-04-09T00:41:32.930Z,12.10
2023-04-09T00:42:32.934Z,12.50
2023-04-09T00:43:32.928Z,12.00
2023-04-09T00:44:32.882Z,11.30
2023-04-09T00:45:32.998Z,11.40
2023-04-09T00:46:32.901Z,11.80
2023-04-09T00:47:32.857Z,11.80
2023-04-09T00:48:32.841Z,11.50
2023-04-09T00:49:32.804Z,11.80
2023-04-09T00:50:32.878Z,11.40
2023-04-09T00:51:32.761Z,12.00
2023-04-09T00:52:32.835Z,12.20
2023-04-09T00:53:32.801Z,11.00
2023-04-09T00:54:32.819Z,12.40
2023-04-09T00:55:32.725Z,12.00
2023-04-09T00:56:32.711Z,12.70
2023-04-09T00:57:32.717Z,11.60
2023-04-09T00:58:32.790Z,11.40
2023-04-09T00:59:32.669Z,12.10
2023-04-09T01:00:32.671Z,11.80
2023-04-09T01:01:32.798Z,11.60
2023-04-09T01:02:32.863Z,11.70
2023-04-09T01:03:32.634Z,10.90
2023-04-09T01:04:32.614Z,10.80
2023-04-09T01:05:32.660Z,11.20
2023-04-09T01:06:32.594Z,11.40
2023-04-09T01:07:32.574Z,10.70
2023-04-09T01:08:32.594Z,11.50
2023-04-09T01:09:32.533Z,11.60
2023-04-09T01:10:32.528Z,10.80
2023-04-09T01:11:32.582Z,11.30
2023-04-09T01:12:32.505Z,11.50
2023-04-09T01:13:32.498Z,11.30
2023-04-09T01:14:32.523Z,11.20
2023-04-09T01:15:32.458Z,12.30
2023-04-09T01:16:32.493Z,11.20
2023-04-09T01:17:32.450Z,10.90
2023-04-09T01:18:32.435Z,11.40
2023-04-09T01:19:32.391Z,11.00
2023-04-09T01:20:32.381Z,10.20
2023-04-09T01:21:32.373Z,11.30
2023-04-09T01:22:32.434Z,10.80
2023-04-09T01:23:32.353Z,10.30
2023-04-09T01:24:32.349Z,11.30
2023-04-09T01:25:32.330Z,10.50
2023-04-09T01:26:32.401Z,10.30
2023-04-09T01:27:32.329Z,11.00
2023-04-09T01:28:32.311Z,11.20
2023-04-09T01:29:32.262Z,10.90
2023-04-09T01:30:32.291Z,10.90
2023-04-09T01:31:32.242Z,11.30
2023-04-09T01:32:32.235Z,11.20
2023-04-09T01:33:32.246Z,10.70
2023-04-09T01:34:32.342Z,10.90
2023-04-09T01:35:32.234Z,10.40
2023-04-09T01:36:32.195Z,11.20
2023-04-09T01:37:32.167Z,11.20
2023-04-09T01:38:32.189Z,11.50
2023-04-09T01:39:32.254Z,11.60
2023-04-09T01:40:32.170Z,10.10
2023-04-09T01:41:32.124Z,10.20
2023-04-09T01:42:32.206Z,10.60
2023-04-09T01:43:32.114Z,10.70
2023-04-09T01:44:32.091Z,9.70
2023-04-09T01:45:32.056Z,10.20
2023-04-09T01:46:32.179Z,10.60
2023-04-09T01:47:32.249Z,10.90
2023-04-09T01:48:32.047Z,9.60
2023-04-09T01:49:32.025Z,10.30
2023-04-09T01:51:48.615Z,10.30
2023-04-09T01:52:49.618Z,10.20
2023-04-09T01:53:49.592Z,10.20
2023-04-09T01:54:49.569Z,10.10
2023-04-09T01:55:49.552Z,10.20
2023-04-09T01:56:49.556Z,9.90
2023-04-09T01:57:49.595Z,9.90
2023-04-09T01:58:49.595Z,10.00
2023-04-09T01:59:49.515Z,10.20
2023-04-09T02:00:49.534Z,10.10
2023-04-09T02:01:49.662Z,10.20
2023-04-09T02:02:49.572Z,10.80
2023-04-09T02:03:49.654Z,10.00
2023-04-09T02:04:49.444Z,9.60
2023-04-09T02:05:49.450Z,9.70
2023-04-09T02:06:49.448Z,10.60
2023-04-09T02:07:49.411Z,10.20
2023-04-09T02:08:49.601Z,9.80
2023-04-09T02:09:49.394Z,9.60
2023-04-09T02:10:49.418Z,9.40
2023-04-09T02:11:49.382Z,10.60
2023-04-09T02:12:49.358Z,10.00
2023-04-09T02:13:49.356Z,10.20
2023-04-09T02:14:49.356Z,9.70
2023-04-09T02:15:49.384Z,10.50
2023-04-09T02:16:49.300Z,10.10
2023-04-09T02:17:49.419Z,10.30
2023-04-09T02:18:49.338Z,9.80
2023-04-09T02:19:49.265Z,10.20
2023-04-09T02:20:49.275Z,10.30
2023-04-09T02:21:49.227Z,9.70
2023-04-09T02:22:49.208Z,10.40
2023-04-09T02:23:49.317Z,9.50
2023-04-09T02:24:49.221Z,9.70
2023-04-09T02:25:49.186Z,9.60
2023-04-09T02:26:49.162Z,9.70
2023-04-09T02:27:49.222Z,10.30
2023-04-09T02:28:49.252Z,10.30
2023-04-09T02:29:49.134Z,9.50
2023-04-09T02:30:49.200Z,9.30
2023-04-09T02:31:49.139Z,9.80
2023-04-09T02:32:49.094Z,9.50
2023-04-09T02:33:49.162Z,9.80
2023-04-09T02:34:49.094Z,8.90
2023-04-09T02:35:49.064Z,9.50
2023-04-09T02:36:49.048Z,9.50
2023-04-09T02:37:49.082Z,9.80
2023-04-09T02:38:49.077Z,10.70
2023-04-09T02:39:49.029Z,10.20
2023-04-09T02:40:48.982Z,9.20
2023-04-09T02:41:48.984Z,9.10
2023-04-09T02:42:48.961Z,9.60
2023-04-09T02:43:48.941Z,9.50
2023-04-09T02:44:48.950Z,9.70
2023-04-09T02:45:48.928Z,8.70
2023-04-09T02:46:49.163Z,9.40
2023-04-09T02:47:48.983Z,9.50
2023-04-09T02:48:48.900Z,9.30
2023-04-09T02:49:48.892Z,9.70
2023-04-09T02:50:48.872Z,9.80
2023-04-09T02:51:48.887Z,9.40
2023-04-09T02:52:48.845Z,9.40
2023-04-09T02:53:48.823Z,9.20
2023-04-09T02:54:48.865Z,9.80
2023-04-09T02:55:48.796Z,8.80
2023-04-09T02:56:48.778Z,9.30
2023-04-09T02:57:48.774Z,9.30
2023-04-09T02:58:48.797Z,9.40
2023-04-09T02:59:48.734Z,9.30
2023-04-09T03:00:48.743Z,9.10
2023-04-09T03:01:48.823Z,9.50
2023-04-09T03:02:48.796Z,9.30
2023-04-09T03:03:48.766Z,9.00
2023-04-09T03:04:48.732Z,9.00
2023-04-09T03:05:48.701Z,9.80
2023-04-09T03:06:48.654Z,9.20
2023-04-09T03:07:48.648Z,8.80
2023-04-09T03:08:48.661Z,9.60
2023-04-09T03:09:48.681Z,9.10
2023-04-09T03:10:48.637Z,9.50
2023-04-09T03:11:48.584Z,9.30
2023-04-09T03:12:48.596Z,8.80
2023-04-09T03:13:48.579Z,10.20
2023-04-09T03:14:48.595Z,9.10
2023-04-09T03:15:48.622Z,9.50
2023-04-09T03:16:48.521Z,9.40
2023-04-09T03:17:48.540Z,9.50
2023-04-09T03:18:48.512Z,10.00
2023-04-09T03:19:48.541Z,9.80
2023-04-09T03:20:48.484Z,9.40
2023-04-09T03:21:48.471Z,9.80
2023-04-09T03:22:48.443Z,9.70
2023-04-09T03:23:48.424Z,9.80
2023-04-09T03:24:48.463Z,9.50
2023-04-09T03:25:48.412Z,9.20
2023-04-09T03:26:48.417Z,9.40
2023-04-09T03:27:48.386Z,9.40
2023-04-09T03:28:48.389Z,9.60
2023-04-09T03:29:48.390Z,9.40
2023-04-09T03:30:48.345Z,9.00
2023-04-09T03:31:48.342Z,9.10
2023-04-09T03:32:48.380Z,9.70
2023-04-09T03:33:48.330Z,9.40
2023-04-09T03:34:48.336Z,9.20
2023-04-09T03:35:48.349Z,9.10
2023-04-09T03:36:48.266Z,9.10
2023-04-09T03:37:48.269Z,9.10
2023-04-09T03:38:48.253Z,9.60
2023-04-09T03:39:48.250Z,9.50
2023-04-09T03:40:48.230Z,9.60
2023-04-09T03:41:48.249Z,9.40
2023-04-09T03:42:48.196Z,9.20
2023-04-09T03:43:48.208Z,9.30
2023-04-09T03:44:48.225Z,9.60
2023-04-09T03:45:48.154Z,9.10
2023-04-09T03:46:48.187Z,8.80
2023-04-09T03:47:48.136Z,9.20
2023-04-09T03:48:48.176Z,9.40
2023-04-09T03:49:48.126Z,9.60
2023-04-09T03:50:48.089Z,9.60
2023-04-09T03:51:48.065Z,10.40
2023-04-09T03:52:48.095Z,9.10
2023-04-09T03:53:48.048Z,8.90
2023-04-09T03:54:48.085Z,9.10
2023-04-09T03:55:48.120Z,9.10
2023-04-09T03:56:48.011Z,9.00
2023-04-09T03:57:47.998Z,9.00
2023-04-09T03:58:48.055Z,9.20
2023-04-09T03:59:47.993Z,9.40
2023-04-09T04:00:48.018Z,8.90
2023-04-09T04:01:47.985Z,9.90
2023-04-09T04:02:48.057Z,9.80
2023-04-09T04:03:48.190Z,9.50
2023-04-09T04:04:48.097Z,9.60
2023-04-09T04:05:47.954Z,9.20
2023-04-09T04:06:47.880Z,9.30
2023-04-09T04:07:47.886Z,9.60
2023-04-09T04:08:47.862Z,9.80
2023-04-09T04:09:47.854Z,9.30
2023-04-09T04:10:47.872Z,9.10
2023-04-09T04:11:47.804Z,9.20
2023-04-09T04:12:47.887Z,9.20
2023-04-09T04:13:47.842Z,9.10
2023-04-09T04:14:47.789Z,9.10
2023-04-09T04:15:47.796Z,9.60
2023-04-09T04:16:47.810Z,9.50
2023-04-09T04:17:47.790Z,9.60
2023-04-09T04:18:47.791Z,8.80
2023-04-09T04:19:47.718Z,9.70
2023-04-09T04:20:47.820Z,9.00
2023-04-09T04:21:47.643Z,9.50
2023-04-09T04:22:47.620Z,10.10
2023-04-09T04:23:47.676Z,10.40
2023-04-09T04:24:47.602Z,9.70
2023-04-09T04:25:47.612Z,9.40
2023-04-09T04:26:47.573Z,9.60
2023-04-09T04:27:47.635Z,9.90
2023-04-09T04:28:47.544Z,10.00
2023-04-09T04:29:47.532Z,10.40
2023-04-09T04:30:47.564Z,9.80
2023-04-09T04:31:47.605Z,9.50
2023-04-09T04:32:47.528Z,9.80
2023-04-09T04:33:47.503Z,9.40
2023-04-09T04:34:47.532Z,10.00
2023-04-09T04:35:47.495Z,10.00
2023-04-09T04:36:47.443Z,9.80
2023-04-09T04:37:47.501Z,9.80
2023-04-09T04:38:47.426Z,9.30
2023-04-09T04:39:47.422Z,10.30
2023-04-09T04:40:47.429Z,10.20
2023-04-09T04:41:47.398Z,10.80
2023-04-09T04:42:47.364Z,10.40
2023-04-09T04:43:47.374Z,10.00
2023-04-09T04:44:47.337Z,9.20
2023-04-09T04:45:47.361Z,9.90
2023-04-09T04:46:47.328Z,9.70
2023-04-09T04:47:47.449Z,10.40
2023-04-09T04:48:47.298Z,9.80
2023-04-09T04:49:47.265Z,10.20
2023-04-09T04:50:47.286Z,9.60
2023-04-09T04:51:47.266Z,10.10
2023-04-09T04:52:47.254Z,9.90
2023-04-09T04:53:47.220Z,9.90
2023-04-09T04:54:47.212Z,9.60
2023-04-09T04:55:47.486Z,9.00
2023-04-09T04:56:47.180Z,9.40
2023-04-09T04:57:47.234Z,9.80
2023-04-09T04:58:47.167Z,9.80
2023-04-09T04:59:47.152Z,10.10
2023-04-09T05:00:47.243Z,9.50
2023-04-09T05:01:47.176Z,10.00
2023-04-09T05:02:47.242Z,9.70
2023-04-09T05:03:47.186Z,9.50
2023-04-09T05:04:47.100Z,9.80
2023-04-09T05:05:47.087Z,9.50
2023-04-09T05:06:47.166Z,9.50
2023-04-09T05:07:47.042Z,9.20
2023-04-09T05:08:47.131Z,9.70
2023-04-09T05:09:47.002Z,9.40
2023-04-09T05:10:47.183Z,10.60
2023-04-09T05:11:47.002Z,10.00
2023-04-09T05:12:46.984Z,9.40
2023-04-09T05:13:46.961Z,10.10
2023-04-09T05:14:46.958Z,10.20
2023-04-09T05:15:47.098Z,10.10
2023-04-09T05:16:46.970Z,9.60
2023-04-09T05:17:46.997Z,10.00
2023-04-09T05:18:46.901Z,9.50
2023-04-09T05:19:46.878Z,9.90
2023-04-09T05:20:46.912Z,10.10
2023-04-09T05:21:47.613Z,9.10
2023-04-09T05:22:46.976Z,10.00
2023-04-09T05:23:46.858Z,9.60
2023-04-09T05:24:46.817Z,9.30
2023-04-09T05:25:46.924Z,9.80
2023-04-09T05:26:46.798Z,10.00
2023-04-09T05:27:46.840Z,9.30
2023-04-09T05:28:46.783Z,9.30
2023-04-09T05:29:46.769Z,9.40
2023-04-09T05:30:46.837Z,10.50
2023-04-09T05:31:46.734Z,9.60
2023-04-09T05:32:46.778Z,9.60
2023-04-09T05:33:46.777Z,9.70
2023-04-09T05:34:46.702Z,9.20
2023-04-09T05:35:46.687Z,9.60
2023-04-09T05:36:46.689Z,9.00
2023-04-09T05:37:46.653Z,9.40
2023-04-09T05:38:46.647Z,8.60
2023-04-09T05:39:46.639Z,9.10
2023-04-09T05:40:46.607Z,9.10
2023-04-09T05:41:46.776Z,9.30
2023-04-09T05:42:46.583Z,8.30
2023-04-09T05:43:46.606Z,9.10
2023-04-09T05:44:46.573Z,9.40
2023-04-09T05:45:46.605Z,8.90
2023-04-09T05:46:46.534Z,8.60
2023-04-09T05:47:46.647Z,8.20
2023-04-09T05:48:46.513Z,8.90
2023-04-09T05:49:46.528Z,8.60
2023-04-09T05:50:54.126Z,8.70
2023-04-09T05:51:46.522Z,8.70
2023-04-09T05:52:46.540Z,8.60
2023-04-09T05:53:46.480Z,8.50
2023-04-09T05:54:46.449Z,8.40
2023-04-09T05:55:46.493Z,8.00
2023-04-09T05:56:46.431Z,8.90
2023-04-09T05:57:46.410Z,9.60
2023-04-09T05:58:46.403Z,8.20
2023-04-09T05:59:46.398Z,8.00
2023-04-09T06:00:46.388Z,9.00
2023-04-09T06:01:46.369Z,8.40
2023-04-09T06:02:46.451Z,8.40
2023-04-09T06:03:46.443Z,7.70
2023-04-09T06:04:46.355Z,8.30
2023-04-09T06:05:46.335Z,8.20
2023-04-09T06:06:46.349Z,8.20
2023-04-09T06:07:46.370Z,7.60
2023-04-09T06:08:46.265Z,8.00
2023-04-09T06:09:46.349Z,7.70
2023-04-09T06:10:46.269Z,8.30
2023-04-09T06:11:46.289Z,7.60
2023-04-09T06:12:46.212Z,8.60
2023-04-09T06:13:46.205Z,8.10
2023-04-09T06:14:46.187Z,7.60
2023-04-09T06:15:46.223Z,8.30
2023-04-09T06:16:46.209Z,7.50
2023-04-09T06:17:46.245Z,7.50
2023-04-09T06:18:46.148Z,7.90
2023-04-09T06:19:46.214Z,7.90
2023-04-09T06:20:46.147Z,8.00
2023-04-09T06:21:46.157Z,8.30
2023-04-09T06:22:46.073Z,8.00
2023-04-09T06:23:46.070Z,8.60
2023-04-09T06:24:46.071Z,7.90
2023-04-09T06:25:46.068Z,7.30
2023-04-09T06:26:46.131Z,7.70
2023-04-09T06:27:46.016Z,7.80
2023-04-09T06:28:46.135Z,7.90
2023-04-09T06:29:46.036Z,7.70
2023-04-09T06:30:46.053Z,7.90
2023-04-09T06:31:45.973Z,8.20
2023-04-09T06:32:54.376Z,7.40
2023-04-09T06:33:45.984Z,7.80
2023-04-09T06:34:45.931Z,7.80
2023-04-09T06:35:46.035Z,8.10
2023-04-09T06:36:45.886Z,8.10
2023-04-09T06:37:46.032Z,8.50
2023-04-09T06:38:45.898Z,8.20
2023-04-09T06:39:59.984Z,8.10
2023-04-09T06:40:45.867Z,7.50
2023-04-09T06:41:45.860Z,8.50
2023-04-09T06:42:45.837Z,7.30
2023-04-09T06:43:45.901Z,7.70
2023-04-09T06:44:45.819Z,8.30
2023-04-09T06:45:45.805Z,7.70
2023-04-09T06:46:45.780Z,7.90
2023-04-09T06:47:45.875Z,8.10
2023-04-09T06:48:45.786Z,8.10
2023-04-09T06:49:45.747Z,8.00
2023-04-09T06:50:45.700Z,7.80
2023-04-09T06:51:45.860Z,7.90
2023-04-09T06:52:45.737Z,8.30
2023-04-09T06:53:45.764Z,7.60
2023-04-09T06:54:45.664Z,8.40
2023-04-09T06:55:45.959Z,7.60
2023-04-09T06:56:45.628Z,8.60
2023-04-09T06:57:45.645Z,8.60
2023-04-09T06:58:45.618Z,7.50
2023-04-09T06:59:45.599Z,7.90
2023-04-09T07:00:45.585Z,8.10
2023-04-09T07:01:45.680Z,7.90
2023-04-09T07:02:45.787Z,7.90
2023-04-09T07:03:45.592Z,8.70
2023-04-09T07:04:45.682Z,7.40
2023-04-09T07:05:45.521Z,7.70
2023-04-09T07:06:45.505Z,8.40
2023-04-09T07:07:45.549Z,7.80
2023-04-09T07:08:45.486Z,8.30
2023-04-09T07:09:45.474Z,8.50
2023-04-09T07:10:45.456Z,8.20
2023-04-09T07:11:45.453Z,7.90
2023-04-09T07:12:45.460Z,7.90
2023-04-09T07:13:45.436Z,8.60
2023-04-09T07:14:45.394Z,7.90
2023-04-09T07:15:45.460Z,8.10
2023-04-09T07:16:45.393Z,8.50
2023-04-09T07:17:45.411Z,8.10
2023-04-09T07:18:45.361Z,7.80
2023-04-09T07:19:45.354Z,7.70
2023-04-09T07:20:45.362Z,8.40
2023-04-09T07:21:45.340Z,8.30
2023-04-09T07:22:45.317Z,8.20
2023-04-09T07:23:45.289Z,8.10
2023-04-09T07:24:45.320Z,7.70
2023-04-09T07:25:45.313Z,8.40
2023-04-09T07:26:45.421Z,7.70
2023-04-09T07:27:45.235Z,7.60
2023-04-09T07:28:45.259Z,7.90
2023-04-09T07:29:45.311Z,7.50
2023-04-09T07:30:45.211Z,7.90
2023-04-09T07:31:45.296Z,7.60
2023-04-09T07:32:45.201Z,8.90
2023-04-09T07:33:45.175Z,7.70
2023-04-09T07:34:45.239Z,7.60
2023-04-09T07:35:45.163Z,8.40
2023-04-09T07:36:45.157Z,7.70
2023-04-09T07:37:45.146Z,7.70
2023-04-09T07:38:45.187Z,8.00
2023-04-09T07:39:45.148Z,7.50
2023-04-09T07:40:45.065Z,7.80
2023-04-09T07:41:45.125Z,7.70
2023-04-09T07:42:45.043Z,8.70
2023-04-09T07:43:45.161Z,8.00
2023-04-09T07:44:45.024Z,8.00
2023-04-09T07:45:45.189Z,7.50
2023-04-09T07:46:45.041Z,7.10
2023-04-09T07:47:45.186Z,8.40
2023-04-09T07:48:46.162Z,8.30
2023-04-09T07:49:45.007Z,8.70
2023-04-09T07:50:45.015Z,7.30
2023-04-09T07:51:44.955Z,8.20
2023-04-09T07:52:44.920Z,7.40
2023-04-09T07:53:45.147Z,7.30
2023-04-09T07:54:44.901Z,8.50
2023-04-09T07:55:44.884Z,7.20
2023-04-09T07:56:44.975Z,7.30
2023-04-09T07:57:44.852Z,7.60
2023-04-09T07:58:44.891Z,7.60
2023-04-09T07:59:44.845Z,7.70
2023-04-09T08:00:44.829Z,7.40
2023-04-09T08:01:44.866Z,7.60
2023-04-09T08:02:45.115Z,7.10
2023-04-09T08:03:45.083Z,7.10
2023-04-09T08:04:45.052Z,7.30
2023-04-09T08:05:44.758Z,8.10
2023-04-09T08:06:44.755Z,6.70
2023-04-09T08:07:44.734Z,7.90
2023-04-09T08:08:44.824Z,8.30
2023-04-09T08:09:44.716Z,7.80
2023-04-09T08:10:44.704Z,7.50
2023-04-09T08:11:44.683Z,7.10
2023-04-09T08:12:44.704Z,8.00
2023-04-09T08:13:44.735Z,7.30
2023-04-09T08:14:44.665Z,7.90
2023-04-09T08:15:44.627Z,7.20
2023-04-09T08:16:44.718Z,7.80
2023-04-09T08:17:44.685Z,7.30
2023-04-09T08:18:44.616Z,7.80
2023-04-09T08:19:44.662Z,7.20
2023-04-09T08:20:44.565Z,7.20
2023-04-09T08:21:44.602Z,6.50
2023-04-09T08:22:44.549Z,6.70
2023-04-09T08:23:44.550Z,6.30
2023-04-09T08:24:44.546Z,6.90
2023-04-09T08:25:44.495Z,6.30
2023-04-09T08:26:44.492Z,6.80
2023-04-09T08:27:44.474Z,6.20
2023-04-09T08:28:44.516Z,6.40
2023-04-09T08:29:44.566Z,6.70
2023-04-09T08:30:44.414Z,6.50
2023-04-09T08:31:44.545Z,6.80
2023-04-09T08:32:44.475Z,6.10
2023-04-09T08:33:44.406Z,5.90
2023-04-09T08:34:44.420Z,6.00
2023-04-09T08:35:44.386Z,5.50
2023-04-09T08:36:44.406Z,6.30
2023-04-09T08:37:44.390Z,6.80
2023-04-09T08:38:44.328Z,5.50
2023-04-09T08:39:44.332Z,5.90
2023-04-09T08:40:44.302Z,5.70
2023-04-09T08:41:44.427Z,5.30
2023-04-09T08:42:44.365Z,5.50
2023-04-09T08:43:57.009Z,6.10
2023-04-09T08:44:44.264Z,5.30
2023-04-09T08:45:44.270Z,5.80
2023-04-09T08:46:44.259Z,5.20
2023-04-09T08:47:44.295Z,5.50
2023-04-09T08:49:36.194Z,4.70
2023-04-09T08:50:37.181Z,5.40
2023-04-09T08:51:37.180Z,5.30
2023-04-09T08:52:37.171Z,5.90
2023-04-09T08:53:37.163Z,5.70
2023-04-09T08:54:37.166Z,5.40
2023-04-09T08:55:37.120Z,5.40
2023-04-09T08:56:37.126Z,5.20
2023-04-09T08:57:37.085Z,4.70
2023-04-09T08:58:37.227Z,5.20
2023-04-09T08:59:37.269Z,4.90
2023-04-09T09:00:37.080Z,4.60
2023-04-09T09:01:37.219Z,4.60
2023-04-09T09:02:37.100Z,5.60
2023-04-09T09:03:37.106Z,4.20
2023-04-09T09:04:37.010Z,4.80
2023-04-09T09:05:37.029Z,4.80
2023-04-09T09:06:37.038Z,4.60
2023-04-09T09:07:36.980Z,4.20
2023-04-09T09:08:37.026Z,4.30
2023-04-09T09:09:37.108Z,5.60
2023-04-09T09:10:37.169Z,4.80
2023-04-09T09:11:37.031Z,4.90
2023-04-09T09:12:36.908Z,4.90
2023-04-09T09:13:36.884Z,4.50
2023-04-09T09:14:36.911Z,4.70
2023-04-09T09:15:36.875Z,5.20
2023-04-09T09:16:36.923Z,4.40
2023-04-09T09:17:36.905Z,4.30
2023-04-09T09:18:36.862Z,4.50
2023-04-09T09:19:36.797Z,4.60
2023-04-09T09:20:36.831Z,4.30
2023-04-09T09:21:36.829Z,4.30
2023-04-09T09:22:36.770Z,4.20
2023-04-09T09:23:36.863Z,4.10
2023-04-09T09:24:36.740Z,4.60
2023-04-09T09:25:36.730Z,4.10
2023-04-09T09:26:36.784Z,3.80
2023-04-09T09:27:37.155Z,4.10
2023-04-09T09:28:36.672Z,4.30
2023-04-09T09:29:36.698Z,4.20
2023-04-09T09:30:36.707Z,4.10
2023-04-09T09:31:36.638Z,3.90
2023-04-09T09:32:36.820Z,3.70
2023-04-09T09:33:36.625Z,3.60
2023-04-09T09:34:36.621Z,4.10
2023-04-09T09:35:36.659Z,4.10
2023-04-09T09:36:36.614Z,4.00
2023-04-09T09:37:36.601Z,3.80
2023-04-09T09:38:36.587Z,3.90
2023-04-09T09:39:36.544Z,3.90
2023-04-09T09:40:36.638Z,3.70
2023-04-09T09:41:36.540Z,3.60
2023-04-09T09:42:36.541Z,3.50
2023-04-09T09:43:36.505Z,3.40
2023-04-09T09:44:36.501Z,3.60
2023-04-09T09:45:36.546Z,3.40
2023-04-09T09:46:36.503Z,4.10
2023-04-09T09:47:36.528Z,3.30
2023-04-09T09:48:36.428Z,3.80
2023-04-09T09:49:36.430Z,3.80
2023-04-09T09:50:36.407Z,3.60
2023-04-09T09:51:36.428Z,4.10
2023-04-09T09:52:36.374Z,3.80
2023-04-09T09:53:36.368Z,3.60
2023-04-09T09:54:36.527Z,3.60
2023-04-09T09:55:36.412Z,3.50
2023-04-09T09:56:36.342Z,3.70
2023-04-09T09:57:36.332Z,3.40
2023-04-09T09:58:36.325Z,3.60
2023-04-09T09:59:36.288Z,3.60
2023-04-09T10:00:36.277Z,3.80
2023-04-09T10:01:36.445Z,4.10
2023-04-09T10:02:36.317Z,4.50
2023-04-09T10:03:36.258Z,3.30
2023-04-09T10:04:36.302Z,3.60
2023-04-09T10:05:36.221Z,3.40
2023-04-09T10:06:36.211Z,3.10
2023-04-09T10:07:36.228Z,3.30
2023-04-09T10:08:36.174Z,3.20
2023-04-09T10:09:36.150Z,3.20
2023-04-09T10:10:36.196Z,2.90
2023-04-09T10:11:36.160Z,3.40
2023-04-09T10:12:36.125Z,3.00
2023-04-09T10:13:36.102Z,2.90
2023-04-09T10:14:36.241Z,3.20
2023-04-09T10:15:36.118Z,3.10
2023-04-09T10:16:36.102Z,3.50
2023-04-09T10:17:36.074Z,3.00
2023-04-09T10:18:36.046Z,2.80
2023-04-09T10:19:36.026Z,3.10
2023-04-09T10:20:36.019Z,2.80
2023-04-09T10:21:36.368Z,2.80
2023-04-09T10:22:36.007Z,3.00
2023-04-09T10:23:35.980Z,3.20
2023-04-09T10:24:35.980Z,3.00
2023-04-09T10:25:35.941Z,3.40
2023-04-09T10:26:35.947Z,2.90
2023-04-09T10:27:35.995Z,3.60
2023-04-09T10:28:35.900Z,3.40
2023-04-09T10:29:35.910Z,3.50
2023-04-09T10:30:35.883Z,3.60
2023-04-09T10:31:35.965Z,3.40
2023-04-09T10:32:35.885Z,3.30
2023-04-09T10:33:35.878Z,3.20
2023-04-09T10:34:35.828Z,3.20
2023-04-09T10:35:35.819Z,3.20
2023-04-09T10:36:35.824Z,3.30
2023-04-09T10:37:35.797Z,3.60
2023-04-09T10:38:35.789Z,4.00
2023-04-09T10:39:35.773Z,3.60
2023-04-09T10:40:35.792Z,3.60
2023-04-09T10:41:35.762Z,3.10
2023-04-09T10:42:35.778Z,2.90
2023-04-09T10:43:35.726Z,3.10
2023-04-09T10:44:35.780Z,3.20
2023-04-09T10:45:35.697Z,3.50
2023-04-09T10:46:35.695Z,3.20
2023-04-09T10:47:35.721Z,3.40
2023-04-09T10:48:35.644Z,3.40
2023-04-09T10:49:35.736Z,3.20
2023-04-09T10:50:35.617Z,3.60
2023-04-09T10:51:35.619Z,3.30
2023-04-09T10:52:35.628Z,3.40
2023-04-09T10:53:35.642Z,3.60
2023-04-09T10:54:35.585Z,480.80
2023-04-09T10:55:35.616Z,361.10
2023-04-09T10:56:35.632Z,313.00
2023-04-09T10:57:35.550Z,231.90
2023-04-09T10:58:35.520Z,125.80
2023-04-09T10:59:35.572Z,492.00
2023-04-09T11:00:35.489Z,234.40
2023-04-09T11:01:35.599Z,999.90
2023-04-09T11:02:35.632Z,487.40
2023-04-09T11:03:35.530Z,17.10
2023-04-09T11:04:35.477Z,8.70
2023-04-09T11:05:35.458Z,4.70
2023-04-09T11:06:35.435Z,4.10
2023-04-09T11:07:35.412Z,4.20
2023-04-09T11:08:35.418Z,3.90
2023-04-09T11:09:35.367Z,4.60
2023-04-09T11:10:35.381Z,5.00
2023-04-09T11:11:35.341Z,4.40
2023-04-09T11:12:35.346Z,4.20
2023-04-09T11:13:35.344Z,4.80
2023-04-09T11:14:35.309Z,10.80
2023-04-09T11:15:35.353Z,8.70
2023-04-09T11:16:35.339Z,445.50
2023-04-09T11:17:35.423Z,6.60
2023-04-09T11:18:35.252Z,4.90
2023-04-09T11:19:35.248Z,4.90
2023-04-09T11:20:35.254Z,5.20
2023-04-09T11:21:35.827Z,4.60
2023-04-09T11:22:35.208Z,3.80
2023-04-09T11:23:35.198Z,4.40
2023-04-09T11:24:35.169Z,3.80
2023-04-09T11:25:35.175Z,2.90
2023-04-09T11:26:35.165Z,3.50
2023-04-09T11:27:35.158Z,3.70
2023-04-09T11:28:35.116Z,4.00
2023-04-09T11:29:35.144Z,4.20
2023-04-09T11:30:35.095Z,3.60
2023-04-09T11:31:35.157Z,3.70
2023-04-09T11:32:35.191Z,3.50
2023-04-09T11:33:35.114Z,3.80
2023-04-09T11:34:35.037Z,3.50
2023-04-09T11:35:35.049Z,4.40
2023-04-09T11:36:35.070Z,4.00
2023-04-09T11:37:35.002Z,4.00
2023-04-09T11:38:35.021Z,4.10
2023-04-09T11:39:34.983Z,3.90
2023-04-09T11:40:35.040Z,3.10
2023-04-09T11:41:34.950Z,4.10
2023-04-09T11:42:34.945Z,3.50
2023-04-09T11:43:34.948Z,3.10
2023-04-09T11:44:34.952Z,3.50
2023-04-09T11:45:34.890Z,3.10
2023-04-09T11:46:34.998Z,3.10
2023-04-09T11:47:34.901Z,3.10
2023-04-09T11:48:34.920Z,3.30
2023-04-09T11:49:34.845Z,3.10
2023-04-09T11:50:34.929Z,3.10
2023-04-09T11:51:34.827Z,2.80
2023-04-09T11:52:34.795Z,3.60
2023-04-09T11:53:34.808Z,3.00
2023-04-09T11:54:34.886Z,2.90
2023-04-09T11:55:34.787Z,3.10
2023-04-09T11:56:34.765Z,3.10
2023-04-09T11:57:34.883Z,2.60
2023-04-09T11:58:34.772Z,3.40
2023-04-09T11:59:34.764Z,3.00
2023-04-09T12:00:34.698Z,2.90
2023-04-09T12:01:34.758Z,2.80
2023-04-09T12:02:34.786Z,2.90
2023-04-09T12:03:34.951Z,2.80
2023-04-09T12:04:34.764Z,3.10
2023-04-09T12:05:34.748Z,3.50
2023-04-09T12:06:34.631Z,2.90
2023-04-09T12:07:34.625Z,3.20
2023-04-09T12:08:34.736Z,2.90
2023-04-09T12:09:34.628Z,3.40
2023-04-09T12:10:34.577Z,2.80
2023-04-09T12:11:34.595Z,4.00
2023-04-09T12:12:34.576Z,6.10
2023-04-09T12:13:34.688Z,3.30
2023-04-09T12:14:34.526Z,3.70
2023-04-09T12:15:34.581Z,89.40
2023-04-09T12:16:34.580Z,27.00
2023-04-09T12:17:34.609Z,6.70
2023-04-09T12:18:34.541Z,66.70
2023-04-09T12:19:34.493Z,8.60
2023-04-09T12:20:34.470Z,47.20
2023-04-09T12:21:34.437Z,616.70
2023-04-09T12:22:34.425Z,553.50
2023-04-09T12:23:34.487Z,196.00
2023-04-09T12:24:34.516Z,859.00
2023-04-09T12:25:34.402Z,295.50
2023-04-09T12:26:34.561Z,225.10
2023-04-09T12:27:34.375Z,222.80
2023-04-09T12:28:34.379Z,77.80
2023-04-09T12:29:34.409Z,483.90
2023-04-09T12:30:34.332Z,808.80
2023-04-09T12:31:34.329Z,999.90
2023-04-09T12:32:34.344Z,999.90
2023-04-09T12:33:34.325Z,999.90
2023-04-09T12:34:34.279Z,999.90
2023-04-09T12:35:34.374Z,586.10
2023-04-09T12:36:34.256Z,883.70
2023-04-09T12:37:34.232Z,715.70
2023-04-09T12:38:34.393Z,368.40
2023-04-09T12:39:34.542Z,999.90
2023-04-09T12:40:34.205Z,760.70
2023-04-09T12:41:34.181Z,567.20
2023-04-09T12:42:34.164Z,527.10
2023-04-09T12:43:34.170Z,160.30
2023-04-09T12:44:34.167Z,345.70
2023-04-09T12:45:34.155Z,44.00
2023-04-09T12:46:34.182Z,357.60
2023-04-09T12:47:34.209Z,104.70
2023-04-09T12:48:34.100Z,95.50
2023-04-09T12:49:34.101Z,121.80
2023-04-09T12:50:34.070Z,99.20
2023-04-09T12:51:34.183Z,49.40
2023-04-09T12:52:34.044Z,60.40
2023-04-09T12:53:34.051Z,97.40
2023-04-09T12:54:34.014Z,132.10
2023-04-09T12:55:34.071Z,115.10
2023-04-09T12:56:34.005Z,36.10
2023-04-09T12:57:33.991Z,17.20
2023-04-09T12:58:34.027Z,30.30
2023-04-09T12:59:33.957Z,37.60
2023-04-09T13:00:33.980Z,64.00
2023-04-09T13:01:34.005Z,16.90
2023-04-09T13:02:34.011Z,59.60
2023-04-09T13:03:34.149Z,20.00
2023-04-09T13:04:34.100Z,30.10
2023-04-09T13:05:33.866Z,34.40
2023-04-09T13:06:33.846Z,23.20
2023-04-09T13:07:33.902Z,17.50
2023-04-09T13:08:33.827Z,13.90
2023-04-09T13:09:33.839Z,12.80
2023-04-09T13:10:33.853Z,21.80
2023-04-09T13:11:33.800Z,17.30